Ashland, WI

6:52 AM CDT on September 30, 2014 (GMT -0500)
Kennedy Memorial | Change Station
CLOSE
Current Station
Airport
Location: Ashland,
Elevation: 251 m
Nearby Weather Stations

Elev 251 m 46.55 °N, 90.92 °W | Updated 59 minutes ago

Overcast
Overcast
6 °C
Feels Like 5 °C
N
6
Wind Variable Wind from ESE

Today
High -- | Low -- °C
--% Chance of Precip.
Yesterday
High -- | Low -- °C
Precip. -- mm
7:01 AM 6:45 PM
Waxing Crescent, 36% visible
Pressure 1022 hPa
Visibility 16.1 kilometers
Clouds Overcast 396 m
Windchill 5 °C
Dew Point 4 °C
Humidity 89%
Rainfall 0.0 mm
Snow Depth Not available.
UV 0 out of 12
Pollen 1.20 out of 12
Air Quality Not available.
Flu Activity Not available.
METAR KASX 301053Z AUTO 12003KT 10SM OVC013 06/04 A3017 RMK AO2 SLP224 T00560039

More Conditions Fewer Conditions

Pressure 1022 hPa
Visibility 16.1 kilometers
Clouds Overcast 396 m
Windchill 5 °C
Dew Point 4 °C
Humidity 89%
Rainfall 0.0 mm
Snow Depth Not available.
UV 0 out of 12
Pollen 1.20 out of 12
Air Quality Not available.
Flu Activity Not available.
METAR KASX 301053Z AUTO 12003KT 10SM OVC013 06/04 A3017 RMK AO2 SLP224 T00560039

More Conditions Fewer Conditions

10-Day Weather Forecast

Almanac

Astronomy

Sep. 30, 2014 Rise Set
Actual Time 7:01 AM CDT 6:45 PM CDT
Civil Twilight 6:30 AM CDT 7:15 PM CDT
Nautical Twilight 5:55 AM CDT 7:50 PM CDT
Astronomical Twilight 5:20 AM CDT 8:26 PM CDT
Moon 1:25 PM CDT 10:59 PM CDT
Length of Visible Light 12h 44m
Length of Day
11h 44m
Tomorrow will be 3m 17s shorter.
Waxing Crescent, 36% of the Moon is Illuminated
Today
Waxing Crescent
Oct 1
First Quarter
Oct 8
Full
Oct 15
Last Quarter
Oct 23
New

Today's Extremes

State Highs State Lows

Community

WunderPhotos

Upload Photos

1,757,618 photos uploaded!

Nearby

Snow Depth

Station Depth Elevation
No new snow has been reported.

Earthquake Activity

City Distance Mag. Time & Date
No recent earthquake activity has been reported nearby.
Minimum magnitude displayed is 2.5.

Coastal Water Temperatures

Place Temperature
Duluth, MN 15.6 °C

Nearby Weather Stations